createdAt,value
2018-06-01T00:01:41.007Z,97166.19
2018-06-01T00:06:34.296Z,97159.30
2018-06-01T00:11:27.592Z,97161.52
2018-06-01T00:16:20.873Z,97173.28
2018-06-01T00:21:14.175Z,97177.09
2018-06-01T00:26:08.237Z,97183.73
2018-06-01T00:31:01.593Z,97184.78
2018-06-01T00:35:54.878Z,97189.44
2018-06-01T00:40:48.163Z,97197.02
2018-06-01T00:45:41.434Z,97188.00
2018-06-01T00:50:34.717Z,97182.55
2018-06-01T00:55:28.009Z,97183.75
2018-06-01T01:00:21.301Z,97177.59
2018-06-01T01:05:15.395Z,97171.74
2018-06-01T01:10:09.493Z,97171.95
2018-06-01T01:15:03.533Z,97166.82
2018-06-01T01:19:56.833Z,97166.41
2018-06-01T01:24:50.112Z,97169.45
2018-06-01T01:29:43.409Z,97171.29
2018-06-01T01:34:36.686Z,97178.98
2018-06-01T01:39:29.981Z,97170.78
2018-06-01T01:44:24.023Z,97165.60
2018-06-01T01:49:17.314Z,97166.46
2018-06-01T01:54:10.609Z,97163.55
2018-06-01T01:59:03.926Z,97164.50
2018-06-01T02:03:57.213Z,97163.64
2018-06-01T02:08:50.520Z,97156.33
2018-06-01T02:13:43.800Z,97158.41
2018-06-01T02:18:37.084Z,97152.53
2018-06-01T02:23:30.377Z,97158.91
2018-06-01T02:28:23.652Z,97158.05
2018-06-01T02:33:16.949Z,97160.70
2018-06-01T02:38:10.233Z,97164.77
2018-06-01T02:43:04.289Z,97163.21
2018-06-01T02:47:57.593Z,97158.74
2018-06-01T02:52:51.653Z,97166.41
2018-06-01T02:57:44.952Z,97170.02
2018-06-01T03:02:38.233Z,97175.10
2018-06-01T03:07:31.529Z,97181.94
2018-06-01T03:12:25.590Z,97189.31
2018-06-01T03:17:18.886Z,97194.30
2018-06-01T03:22:12.179Z,97191.23
2018-06-01T03:27:06.254Z,97184.52
2018-06-01T03:31:59.533Z,97205.66
2018-06-01T03:36:52.824Z,97209.52
2018-06-01T03:41:46.888Z,97213.93
2018-06-01T03:46:40.179Z,97213.50
2018-06-01T03:51:33.481Z,97215.66
2018-06-01T03:56:27.572Z,97220.90
2018-06-01T04:01:21.633Z,97224.05
2018-06-01T04:06:14.931Z,97218.24
2018-06-01T04:11:08.221Z,97223.44
2018-06-01T04:16:02.296Z,97218.05
2018-06-01T04:20:55.590Z,97208.69
2018-06-01T04:25:49.643Z,97203.95
2018-06-01T04:30:42.964Z,97208.10
2018-06-01T04:35:37.028Z,97198.79
2018-06-01T04:40:30.339Z,97192.40
2018-06-01T04:45:23.620Z,97187.02
2018-06-01T04:50:17.666Z,97186.69
2018-06-01T04:55:10.957Z,97187.98
2018-06-01T05:00:04.258Z,97200.72
2018-06-01T05:04:57.571Z,97198.00
2018-06-01T05:09:50.870Z,97191.96
2018-06-01T05:14:44.166Z,97189.13
2018-06-01T05:19:37.479Z,97195.24
2018-06-01T05:24:31.537Z,97191.92
2018-06-01T05:29:24.838Z,97188.16
2018-06-01T05:34:18.137Z,97194.13
2018-06-01T05:39:13.977Z,97191.34
2018-06-01T05:44:08.054Z,97196.41
2018-06-01T05:49:02.143Z,97204.91
2018-06-01T05:53:55.441Z,97200.08
2018-06-01T05:58:49.531Z,97205.83
2018-06-01T06:03:43.610Z,97211.80
2018-06-01T06:08:36.914Z,97207.41
2018-06-01T06:13:31.014Z,97202.02
2018-06-01T06:18:24.335Z,97206.44
2018-06-01T06:23:17.625Z,97217.97
2018-06-01T06:28:10.917Z,97214.28
2018-06-01T06:33:04.282Z,97221.30
2018-06-01T06:37:57.839Z,97215.64
2018-06-01T06:42:51.160Z,97225.29
2018-06-01T06:47:44.458Z,97229.95
2018-06-01T06:52:38.513Z,97226.40
2018-06-01T06:57:31.933Z,97226.33
2018-06-01T07:02:25.970Z,97230.86
2018-06-01T07:07:19.485Z,97233.47
2018-06-01T07:12:13.594Z,97239.60
2018-06-01T07:17:06.876Z,97235.67
2018-06-01T07:22:00.930Z,97241.63
2018-06-01T07:26:54.233Z,97237.30
2018-06-01T07:31:48.048Z,97237.59
2018-06-01T07:36:42.101Z,97239.66
2018-06-01T07:41:35.390Z,97235.11
2018-06-01T07:46:28.674Z,97240.00
2018-06-01T07:51:21.958Z,97228.09
2018-06-01T07:56:15.250Z,97232.03
2018-06-01T08:01:09.288Z,97236.00
2018-06-01T08:06:02.581Z,97231.89
2018-06-01T08:10:55.877Z,97234.97
2018-06-01T08:15:49.145Z,97239.84
2018-06-01T08:20:42.434Z,97241.35
2018-06-01T08:25:36.523Z,97245.67
2018-06-01T08:30:29.801Z,97247.21
2018-06-01T08:35:23.114Z,97240.59
2018-06-01T08:40:17.256Z,97238.41
2018-06-01T08:45:10.542Z,97236.55
2018-06-01T08:50:07.054Z,97235.82
2018-06-01T08:55:00.349Z,97240.71
2018-06-01T08:59:53.634Z,97235.28
2018-06-01T09:04:46.914Z,97236.55
2018-06-01T09:09:40.198Z,97243.70
2018-06-01T09:14:33.489Z,97247.69
2018-06-01T09:19:26.768Z,97253.73
2018-06-01T09:24:20.063Z,97257.92
2018-06-01T09:29:16.965Z,97258.16
2018-06-01T09:34:10.250Z,97253.80
2018-06-01T09:39:03.541Z,97253.57
2018-06-01T09:43:56.820Z,97252.65
2018-06-01T09:48:50.185Z,97247.18
2018-06-01T09:53:43.469Z,97246.12
2018-06-01T09:58:36.752Z,97242.01
2018-06-01T10:03:30.038Z,97240.77
2018-06-01T10:08:23.322Z,97241.16
2018-06-01T10:13:16.603Z,97241.50
2018-06-01T10:18:09.880Z,97233.36
2018-06-01T10:23:03.172Z,97234.87
2018-06-01T10:27:56.437Z,97231.12
2018-06-01T10:32:49.712Z,97230.96
2018-06-01T10:37:42.989Z,97223.69
2018-06-01T10:42:36.269Z,97223.30
2018-06-01T10:47:29.539Z,97225.02
2018-06-01T10:52:22.816Z,97217.55
2018-06-01T10:57:16.270Z,97203.34
2018-06-01T11:02:10.806Z,97207.52
2018-06-01T11:07:04.168Z,97209.71
2018-06-01T11:11:57.586Z,97201.92
2018-06-01T11:16:51.779Z,97194.20
2018-06-01T11:21:45.867Z,97186.19
2018-06-01T11:26:40.019Z,97183.38
2018-06-01T11:31:33.462Z,97187.86
2018-06-01T11:36:26.814Z,97181.34
2018-06-01T11:41:20.171Z,97180.94
2018-06-01T11:46:15.273Z,97170.76
2018-06-01T11:51:08.571Z,97170.06
2018-06-01T11:56:08.029Z,97160.50
2018-06-01T12:01:07.623Z,97152.08
2018-06-01T12:06:05.370Z,97148.13
2018-06-01T12:10:58.927Z,97142.61
2018-06-01T12:15:52.861Z,97148.41
2018-06-01T12:20:46.416Z,97150.13
2018-06-01T12:25:40.229Z,97139.44
2018-06-01T12:30:33.659Z,97142.25
2018-06-01T12:35:27.804Z,97140.50
2018-06-01T12:40:21.129Z,97141.68
2018-06-01T12:45:14.522Z,97128.89
2018-06-01T12:50:08.644Z,97125.56
2018-06-01T12:55:02.555Z,97127.92
2018-06-01T12:59:55.877Z,97121.00
2018-06-01T13:04:49.966Z,97102.56
2018-06-01T13:09:43.302Z,97101.16
2018-06-01T13:14:36.601Z,97103.70
2018-06-01T13:19:31.883Z,97100.34
2018-06-01T13:24:25.553Z,97094.19
2018-06-01T13:29:18.909Z,97082.37
2018-06-01T13:34:12.253Z,97090.69
2018-06-01T13:39:07.323Z,97079.48
2018-06-01T13:44:00.634Z,97076.86
2018-06-01T13:48:53.927Z,97083.81
2018-06-01T13:53:47.250Z,97076.85
2018-06-01T13:58:42.183Z,97073.44
2018-06-01T14:03:36.234Z,97073.24
2018-06-01T14:08:29.542Z,97063.52
2018-06-01T14:13:22.850Z,97060.73
2018-06-01T14:18:16.153Z,97064.33
2018-06-01T14:23:09.460Z,97059.52
2018-06-01T14:28:03.620Z,97058.81
2018-06-01T14:32:57.076Z,97061.61
2018-06-01T14:37:51.357Z,97071.00
2018-06-01T14:42:44.879Z,97064.73
2018-06-01T14:47:38.244Z,97068.94
2018-06-01T14:52:31.544Z,97057.30
2018-06-01T14:57:25.071Z,97061.69
2018-06-01T15:02:18.385Z,97061.96
2018-06-01T15:07:11.690Z,97050.94
2018-06-01T15:12:05.010Z,97051.95
2018-06-01T15:16:58.292Z,97042.88
2018-06-01T15:21:52.562Z,97041.33
2018-06-01T15:26:45.873Z,97035.76
2018-06-01T15:31:39.950Z,97030.03
2018-06-01T15:36:33.246Z,97041.95
2018-06-01T15:41:27.339Z,97044.41
2018-06-01T15:46:20.645Z,97035.95
2018-06-01T15:51:13.962Z,97035.87
2018-06-01T15:56:07.297Z,97036.83
2018-06-01T16:01:00.595Z,97032.40
2018-06-01T16:05:53.926Z,97031.61
2018-06-01T16:10:47.277Z,97025.80
2018-06-01T16:15:40.663Z,97025.25
2018-06-01T16:20:33.989Z,97020.69
2018-06-01T16:25:27.326Z,97020.98
2018-06-01T16:30:20.652Z,97016.40
2018-06-01T16:35:13.999Z,97016.93
2018-06-01T16:40:07.309Z,97019.91
2018-06-01T16:45:00.655Z,97025.62
2018-06-01T16:49:54.759Z,97026.98
2018-06-01T16:54:48.857Z,97022.86
2018-06-01T16:59:44.415Z,97029.97
2018-06-01T17:04:37.726Z,97033.77
2018-06-01T17:09:31.010Z,97044.45
2018-06-01T17:14:24.298Z,97054.91
2018-06-01T17:19:17.598Z,97050.18
2018-06-01T17:24:11.402Z,97056.66
2018-06-01T17:29:05.466Z,97061.97
2018-06-01T17:33:58.780Z,97058.41
2018-06-01T17:38:52.255Z,97058.43
2018-06-01T17:43:45.609Z,97062.22
2018-06-01T17:48:39.426Z,97064.80
2018-06-01T17:53:33.477Z,97065.80
2018-06-01T17:58:26.798Z,97066.96
2018-06-01T18:03:20.142Z,97077.41
2018-06-01T18:08:13.478Z,97071.91
2018-06-01T18:13:06.828Z,97080.86
2018-06-01T18:18:00.125Z,97092.66
2018-06-01T18:22:53.453Z,97096.37
2018-06-01T18:27:46.769Z,97095.56
2018-06-01T18:32:40.822Z,97099.02
2018-06-01T18:37:34.122Z,97106.17
2018-06-01T18:42:28.190Z,97112.82
2018-06-01T18:47:21.488Z,97122.20
2018-06-01T18:52:14.784Z,97135.41
2018-06-01T18:57:08.139Z,97145.16
2018-06-01T19:02:01.441Z,97149.45
2018-06-01T19:06:55.534Z,97146.54
2018-06-01T19:11:49.654Z,97155.19
2018-06-01T19:16:42.973Z,97159.50
2018-06-01T19:21:36.305Z,97164.47
2018-06-01T19:26:29.600Z,97172.16
2018-06-01T19:31:22.886Z,97177.92
2018-06-01T19:36:16.192Z,97178.80
2018-06-01T19:41:09.481Z,97186.23
2018-06-01T19:46:02.788Z,97194.20
2018-06-01T19:50:57.058Z,97203.02
2018-06-01T19:55:50.354Z,97199.45
2018-06-01T20:00:44.458Z,97202.20
2018-06-01T20:05:38.505Z,97208.67
2018-06-01T20:10:31.797Z,97215.34
2018-06-01T20:15:25.111Z,97221.72
2018-06-01T20:20:18.430Z,97230.92
2018-06-01T20:25:11.965Z,97243.00
2018-06-01T20:30:06.013Z,97240.70
2018-06-01T20:34:59.306Z,97250.20
2018-06-01T20:39:52.600Z,97248.55
2018-06-01T20:44:45.865Z,97249.84
2018-06-01T20:49:39.144Z,97260.45
2018-06-01T20:54:32.436Z,97259.60
2018-06-01T20:59:26.491Z,97268.48
2018-06-01T21:04:19.892Z,97266.80
2018-06-01T21:09:13.173Z,97270.47
2018-06-01T21:14:06.457Z,97271.55
2018-06-01T21:18:59.738Z,97279.56
2018-06-01T21:23:53.029Z,97274.00
2018-06-01T21:37:56.383Z,97277.82
2018-06-01T21:42:49.682Z,97280.91
2018-06-01T21:47:42.968Z,97279.71
2018-06-01T21:52:37.030Z,97280.28
2018-06-01T21:57:30.315Z,97288.02
2018-06-01T22:02:23.609Z,97288.30
2018-06-01T22:07:17.705Z,97286.96
2018-06-01T22:12:11.041Z,97284.30
2018-06-01T22:17:04.340Z,97288.20
2018-06-01T22:21:57.635Z,97292.61
2018-06-01T22:26:50.917Z,97293.64
2018-06-01T22:31:44.212Z,97294.59
2018-06-01T22:36:37.519Z,97288.59
2018-06-01T22:41:30.819Z,97289.80
2018-06-01T22:46:24.124Z,97287.70
2018-06-01T22:51:18.169Z,97286.23
2018-06-01T22:56:11.534Z,97292.59
2018-06-01T23:01:04.875Z,97286.08
2018-06-01T23:05:58.944Z,97281.41
2018-06-01T23:10:58.854Z,97280.73
2018-06-01T23:15:52.235Z,97272.37
2018-06-01T23:20:45.573Z,97261.41
2018-06-01T23:25:39.622Z,97260.75
2018-06-01T23:30:32.905Z,97267.50
2018-06-01T23:35:26.211Z,97265.11
2018-06-01T23:40:20.268Z,97257.13
2018-06-01T23:45:13.556Z,97259.09
2018-06-01T23:50:06.838Z,97259.05
2018-06-01T23:55:00.125Z,97252.66
2018-06-01T23:59:53.421Z,97251.28
